<?xml version="1.0" encoding="UTF-8" standalone="no" ?>
<gpx xmlns="http://www.topografix.com/GPX/1/1" xmlns:xsi="http://www.w3.org/2001/XMLSchema-instance" xsi:schemaLocation="http://www.topografix.com/GPX/1/1 http://www.topografix.com/GPX/1/1/gpx.xsd" version="1.1" creator="VisuGPX - https://www.visugpx.com">
  <metadata>
    <name>Xonrupt-Longemer V2</name>
  </metadata>
  <trk>
    <name><![CDATA[12550325-Xonrupt-Longemer V2]]></name>
    <trkseg>
      <trkpt lat="48.02921" lon="6.91099">
        <ele>942</ele>
        <time>2021-08-19T12:12:31Z</time>
      </trkpt>
      <trkpt lat="48.02926" lon="6.91215">
        <ele>930</ele>
        <time>2021-08-19T12:12:49Z</time>
      </trkpt>
      <trkpt lat="48.02829" lon="6.91061">
        <ele>913</ele>
        <time>2021-08-19T12:13:22Z</time>
      </trkpt>
      <trkpt lat="48.02839" lon="6.9113">
        <ele>912</ele>
        <time>2021-08-19T12:13:33Z</time>
      </trkpt>
      <trkpt lat="48.02893" lon="6.91297">
        <ele>910</ele>
        <time>2021-08-19T12:14:02Z</time>
      </trkpt>
      <trkpt lat="48.02982" lon="6.91417">
        <ele>907</ele>
        <time>2021-08-19T12:14:30Z</time>
      </trkpt>
      <trkpt lat="48.03113" lon="6.91534">
        <ele>906</ele>
        <time>2021-08-19T12:15:06Z</time>
      </trkpt>
      <trkpt lat="48.03177" lon="6.91572">
        <ele>904</ele>
        <time>2021-08-19T12:15:22Z</time>
      </trkpt>
      <trkpt lat="48.03232" lon="6.91571">
        <ele>905</ele>
        <time>2021-08-19T12:15:35Z</time>
      </trkpt>
      <trkpt lat="48.0339" lon="6.91596">
        <ele>918</ele>
        <time>2021-08-19T12:16:12Z</time>
      </trkpt>
      <trkpt lat="48.03455" lon="6.91611">
        <ele>926</ele>
        <time>2021-08-19T12:16:27Z</time>
      </trkpt>
      <trkpt lat="48.0353" lon="6.91676">
        <ele>932</ele>
        <time>2021-08-19T12:16:47Z</time>
      </trkpt>
      <trkpt lat="48.03548" lon="6.91685">
        <ele>936</ele>
        <time>2021-08-19T12:16:52Z</time>
      </trkpt>
      <trkpt lat="48.03587" lon="6.91759">
        <ele>938</ele>
        <time>2021-08-19T12:17:07Z</time>
      </trkpt>
      <trkpt lat="48.03614" lon="6.91821">
        <ele>940</ele>
        <time>2021-08-19T12:17:18Z</time>
      </trkpt>
      <trkpt lat="48.03621" lon="6.9186">
        <ele>937</ele>
        <time>2021-08-19T12:17:24Z</time>
      </trkpt>
      <trkpt lat="48.03723" lon="6.92066">
        <ele>935</ele>
        <time>2021-08-19T12:18:04Z</time>
      </trkpt>
      <trkpt lat="48.0373" lon="6.92063">
        <ele>938</ele>
        <time>2021-08-19T12:18:06Z</time>
      </trkpt>
      <trkpt lat="48.03756" lon="6.9211">
        <ele>937</ele>
        <time>2021-08-19T12:18:16Z</time>
      </trkpt>
      <trkpt lat="48.0379" lon="6.92134">
        <ele>941</ele>
        <time>2021-08-19T12:18:24Z</time>
      </trkpt>
      <trkpt lat="48.03822" lon="6.92182">
        <ele>942</ele>
        <time>2021-08-19T12:18:35Z</time>
      </trkpt>
      <trkpt lat="48.03923" lon="6.92284">
        <ele>958</ele>
        <time>2021-08-19T12:19:04Z</time>
      </trkpt>
      <trkpt lat="48.03928" lon="6.92302">
        <ele>959</ele>
        <time>2021-08-19T12:19:07Z</time>
      </trkpt>
      <trkpt lat="48.03922" lon="6.92388">
        <ele>955</ele>
        <time>2021-08-19T12:19:20Z</time>
      </trkpt>
      <trkpt lat="48.03954" lon="6.92457">
        <ele>958</ele>
        <time>2021-08-19T12:19:33Z</time>
      </trkpt>
      <trkpt lat="48.03987" lon="6.92494">
        <ele>963</ele>
        <time>2021-08-19T12:19:43Z</time>
      </trkpt>
      <trkpt lat="48.04071" lon="6.92553">
        <ele>973</ele>
        <time>2021-08-19T12:20:04Z</time>
      </trkpt>
      <trkpt lat="48.04096" lon="6.92557">
        <ele>976</ele>
        <time>2021-08-19T12:20:10Z</time>
      </trkpt>
      <trkpt lat="48.04147" lon="6.92592">
        <ele>978</ele>
        <time>2021-08-19T12:20:23Z</time>
      </trkpt>
      <trkpt lat="48.04224" lon="6.9263">
        <ele>976</ele>
        <time>2021-08-19T12:20:42Z</time>
      </trkpt>
      <trkpt lat="48.04268" lon="6.92641">
        <ele>976</ele>
        <time>2021-08-19T12:20:53Z</time>
      </trkpt>
      <trkpt lat="48.04366" lon="6.92635">
        <ele>974</ele>
        <time>2021-08-19T12:21:16Z</time>
      </trkpt>
      <trkpt lat="48.04404" lon="6.92613">
        <ele>976</ele>
        <time>2021-08-19T12:21:25Z</time>
      </trkpt>
      <trkpt lat="48.04468" lon="6.92505">
        <ele>990</ele>
        <time>2021-08-19T12:21:48Z</time>
      </trkpt>
      <trkpt lat="48.04557" lon="6.92427">
        <ele>983</ele>
        <time>2021-08-19T12:22:12Z</time>
      </trkpt>
      <trkpt lat="48.04618" lon="6.92396">
        <ele>984</ele>
        <time>2021-08-19T12:22:27Z</time>
      </trkpt>
      <trkpt lat="48.04637" lon="6.92412">
        <ele>980</ele>
        <time>2021-08-19T12:22:32Z</time>
      </trkpt>
      <trkpt lat="48.04732" lon="6.92531">
        <ele>981</ele>
        <time>2021-08-19T12:23:01Z</time>
      </trkpt>
      <trkpt lat="48.04801" lon="6.92743">
        <ele>978</ele>
        <time>2021-08-19T12:23:38Z</time>
      </trkpt>
      <trkpt lat="48.0482" lon="6.92752">
        <ele>977</ele>
        <time>2021-08-19T12:23:42Z</time>
      </trkpt>
      <trkpt lat="48.04839" lon="6.92754">
        <ele>977</ele>
        <time>2021-08-19T12:23:47Z</time>
      </trkpt>
      <trkpt lat="48.04965" lon="6.92824">
        <ele>977</ele>
        <time>2021-08-19T12:24:18Z</time>
      </trkpt>
      <trkpt lat="48.05109" lon="6.9301">
        <ele>967</ele>
        <time>2021-08-19T12:25:03Z</time>
      </trkpt>
      <trkpt lat="48.05203" lon="6.93191">
        <ele>968</ele>
        <time>2021-08-19T12:25:38Z</time>
      </trkpt>
      <trkpt lat="48.05204" lon="6.93264">
        <ele>965</ele>
        <time>2021-08-19T12:25:50Z</time>
      </trkpt>
      <trkpt lat="48.05215" lon="6.93473">
        <ele>962</ele>
        <time>2021-08-19T12:26:23Z</time>
      </trkpt>
      <trkpt lat="48.05251" lon="6.93632">
        <ele>955</ele>
        <time>2021-08-19T12:26:49Z</time>
      </trkpt>
      <trkpt lat="48.05282" lon="6.93683">
        <ele>955</ele>
        <time>2021-08-19T12:27:00Z</time>
      </trkpt>
      <trkpt lat="48.05316" lon="6.93786">
        <ele>950</ele>
        <time>2021-08-19T12:27:17Z</time>
      </trkpt>
      <trkpt lat="48.05338" lon="6.93827">
        <ele>951</ele>
        <time>2021-08-19T12:27:26Z</time>
      </trkpt>
      <trkpt lat="48.05401" lon="6.93897">
        <ele>960</ele>
        <time>2021-08-19T12:27:44Z</time>
      </trkpt>
      <trkpt lat="48.05485" lon="6.94043">
        <ele>962</ele>
        <time>2021-08-19T12:28:14Z</time>
      </trkpt>
      <trkpt lat="48.05506" lon="6.94052">
        <ele>965</ele>
        <time>2021-08-19T12:28:19Z</time>
      </trkpt>
      <trkpt lat="48.05521" lon="6.94093">
        <ele>962</ele>
        <time>2021-08-19T12:28:26Z</time>
      </trkpt>
      <trkpt lat="48.05543" lon="6.94134">
        <ele>959</ele>
        <time>2021-08-19T12:28:35Z</time>
      </trkpt>
      <trkpt lat="48.05615" lon="6.94223">
        <ele>951</ele>
        <time>2021-08-19T12:28:56Z</time>
      </trkpt>
      <trkpt lat="48.0569" lon="6.94289">
        <ele>946</ele>
        <time>2021-08-19T12:29:17Z</time>
      </trkpt>
      <trkpt lat="48.05687" lon="6.94264">
        <ele>951</ele>
        <time>2021-08-19T12:29:21Z</time>
      </trkpt>
      <trkpt lat="48.05607" lon="6.94166">
        <ele>970</ele>
        <time>2021-08-19T12:29:45Z</time>
      </trkpt>
      <trkpt lat="48.05553" lon="6.94009">
        <ele>990</ele>
        <time>2021-08-19T12:30:12Z</time>
      </trkpt>
      <trkpt lat="48.05535" lon="6.93891">
        <ele>1005</ele>
        <time>2021-08-19T12:30:31Z</time>
      </trkpt>
      <trkpt lat="48.05481" lon="6.93653">
        <ele>1017</ele>
        <time>2021-08-19T12:31:11Z</time>
      </trkpt>
      <trkpt lat="48.054" lon="6.93442">
        <ele>1031</ele>
        <time>2021-08-19T12:31:49Z</time>
      </trkpt>
      <trkpt lat="48.05451" lon="6.93306">
        <ele>1057</ele>
        <time>2021-08-19T12:32:13Z</time>
      </trkpt>
      <trkpt lat="48.05468" lon="6.93199">
        <ele>1070</ele>
        <time>2021-08-19T12:32:30Z</time>
      </trkpt>
      <trkpt lat="48.05448" lon="6.93005">
        <ele>1074</ele>
        <time>2021-08-19T12:33:01Z</time>
      </trkpt>
      <trkpt lat="48.05458" lon="6.92905">
        <ele>1076</ele>
        <time>2021-08-19T12:33:17Z</time>
      </trkpt>
      <trkpt lat="48.05536" lon="6.92787">
        <ele>1077</ele>
        <time>2021-08-19T12:33:42Z</time>
      </trkpt>
      <trkpt lat="48.0566" lon="6.92565">
        <ele>1074</ele>
        <time>2021-08-19T12:34:28Z</time>
      </trkpt>
      <trkpt lat="48.05716" lon="6.9249">
        <ele>1073</ele>
        <time>2021-08-19T12:34:45Z</time>
      </trkpt>
      <trkpt lat="48.05849" lon="6.92153">
        <ele>1053</ele>
        <time>2021-08-19T12:35:46Z</time>
      </trkpt>
      <trkpt lat="48.0589" lon="6.92002">
        <ele>1043</ele>
        <time>2021-08-19T12:36:12Z</time>
      </trkpt>
      <trkpt lat="48.05941" lon="6.91973">
        <ele>1038</ele>
        <time>2021-08-19T12:36:24Z</time>
      </trkpt>
      <trkpt lat="48.06035" lon="6.9194">
        <ele>1033</ele>
        <time>2021-08-19T12:36:47Z</time>
      </trkpt>
      <trkpt lat="48.06102" lon="6.91912">
        <ele>1027</ele>
        <time>2021-08-19T12:37:03Z</time>
      </trkpt>
      <trkpt lat="48.06086" lon="6.91956">
        <ele>1032</ele>
        <time>2021-08-19T12:37:11Z</time>
      </trkpt>
      <trkpt lat="48.06024" lon="6.9205">
        <ele>1034</ele>
        <time>2021-08-19T12:37:32Z</time>
      </trkpt>
      <trkpt lat="48.06022" lon="6.92093">
        <ele>1034</ele>
        <time>2021-08-19T12:37:38Z</time>
      </trkpt>
      <trkpt lat="48.06039" lon="6.92226">
        <ele>1035</ele>
        <time>2021-08-19T12:37:59Z</time>
      </trkpt>
      <trkpt lat="48.06022" lon="6.92356">
        <ele>1038</ele>
        <time>2021-08-19T12:38:20Z</time>
      </trkpt>
      <trkpt lat="48.05984" lon="6.92463">
        <ele>1045</ele>
        <time>2021-08-19T12:38:39Z</time>
      </trkpt>
      <trkpt lat="48.05924" lon="6.92529">
        <ele>1058</ele>
        <time>2021-08-19T12:38:56Z</time>
      </trkpt>
      <trkpt lat="48.05911" lon="6.92598">
        <ele>1062</ele>
        <time>2021-08-19T12:39:08Z</time>
      </trkpt>
      <trkpt lat="48.059" lon="6.92696">
        <ele>1068</ele>
        <time>2021-08-19T12:39:23Z</time>
      </trkpt>
      <trkpt lat="48.05903" lon="6.92775">
        <ele>1069</ele>
        <time>2021-08-19T12:39:36Z</time>
      </trkpt>
      <trkpt lat="48.05902" lon="6.92828">
        <ele>1073</ele>
        <time>2021-08-19T12:39:44Z</time>
      </trkpt>
      <trkpt lat="48.05912" lon="6.92926">
        <ele>1081</ele>
        <time>2021-08-19T12:39:59Z</time>
      </trkpt>
      <trkpt lat="48.05899" lon="6.93047">
        <ele>1087</ele>
        <time>2021-08-19T12:40:18Z</time>
      </trkpt>
      <trkpt lat="48.05858" lon="6.9329">
        <ele>1077</ele>
        <time>2021-08-19T12:40:58Z</time>
      </trkpt>
      <trkpt lat="48.05843" lon="6.93364">
        <ele>1076</ele>
        <time>2021-08-19T12:41:10Z</time>
      </trkpt>
      <trkpt lat="48.05766" lon="6.9357">
        <ele>1072</ele>
        <time>2021-08-19T12:41:46Z</time>
      </trkpt>
      <trkpt lat="48.05759" lon="6.93602">
        <ele>1070</ele>
        <time>2021-08-19T12:41:52Z</time>
      </trkpt>
      <trkpt lat="48.05771" lon="6.93712">
        <ele>1064</ele>
        <time>2021-08-19T12:42:09Z</time>
      </trkpt>
      <trkpt lat="48.05774" lon="6.93764">
        <ele>1062</ele>
        <time>2021-08-19T12:42:17Z</time>
      </trkpt>
      <trkpt lat="48.058" lon="6.93796">
        <ele>1060</ele>
        <time>2021-08-19T12:42:25Z</time>
      </trkpt>
      <trkpt lat="48.05816" lon="6.93849">
        <ele>1058</ele>
        <time>2021-08-19T12:42:34Z</time>
      </trkpt>
      <trkpt lat="48.05843" lon="6.93854">
        <ele>1056</ele>
        <time>2021-08-19T12:42:41Z</time>
      </trkpt>
      <trkpt lat="48.05861" lon="6.9387">
        <ele>1053</ele>
        <time>2021-08-19T12:42:45Z</time>
      </trkpt>
      <trkpt lat="48.05884" lon="6.93866">
        <ele>1049</ele>
        <time>2021-08-19T12:42:51Z</time>
      </trkpt>
      <trkpt lat="48.05902" lon="6.93958">
        <ele>1045</ele>
        <time>2021-08-19T12:43:06Z</time>
      </trkpt>
      <trkpt lat="48.05874" lon="6.94048">
        <ele>1040</ele>
        <time>2021-08-19T12:43:21Z</time>
      </trkpt>
      <trkpt lat="48.0587" lon="6.94085">
        <ele>1035</ele>
        <time>2021-08-19T12:43:27Z</time>
      </trkpt>
      <trkpt lat="48.05919" lon="6.94043">
        <ele>1036</ele>
        <time>2021-08-19T12:43:40Z</time>
      </trkpt>
      <trkpt lat="48.05969" lon="6.94016">
        <ele>1028</ele>
        <time>2021-08-19T12:43:53Z</time>
      </trkpt>
      <trkpt lat="48.05984" lon="6.94004">
        <ele>1027</ele>
        <time>2021-08-19T12:43:57Z</time>
      </trkpt>
      <trkpt lat="48.0599" lon="6.93993">
        <ele>1026</ele>
        <time>2021-08-19T12:43:59Z</time>
      </trkpt>
      <trkpt lat="48.06002" lon="6.93949">
        <ele>1025</ele>
        <time>2021-08-19T12:44:06Z</time>
      </trkpt>
      <trkpt lat="48.06003" lon="6.93916">
        <ele>1025</ele>
        <time>2021-08-19T12:44:11Z</time>
      </trkpt>
      <trkpt lat="48.06009" lon="6.93887">
        <ele>1024</ele>
        <time>2021-08-19T12:44:16Z</time>
      </trkpt>
      <trkpt lat="48.06031" lon="6.93883">
        <ele>1019</ele>
        <time>2021-08-19T12:44:21Z</time>
      </trkpt>
      <trkpt lat="48.06069" lon="6.93899">
        <ele>1010</ele>
        <time>2021-08-19T12:44:31Z</time>
      </trkpt>
      <trkpt lat="48.06089" lon="6.93896">
        <ele>1006</ele>
        <time>2021-08-19T12:44:35Z</time>
      </trkpt>
      <trkpt lat="48.06102" lon="6.93879">
        <ele>1004</ele>
        <time>2021-08-19T12:44:39Z</time>
      </trkpt>
      <trkpt lat="48.06086" lon="6.93842">
        <ele>1007</ele>
        <time>2021-08-19T12:44:46Z</time>
      </trkpt>
      <trkpt lat="48.06078" lon="6.93801">
        <ele>1006</ele>
        <time>2021-08-19T12:44:53Z</time>
      </trkpt>
      <trkpt lat="48.06084" lon="6.93774">
        <ele>1003</ele>
        <time>2021-08-19T12:44:57Z</time>
      </trkpt>
      <trkpt lat="48.06099" lon="6.9378">
        <ele>1000</ele>
        <time>2021-08-19T12:45:01Z</time>
      </trkpt>
      <trkpt lat="48.06143" lon="6.93836">
        <ele>996</ele>
        <time>2021-08-19T12:45:14Z</time>
      </trkpt>
      <trkpt lat="48.06161" lon="6.93846">
        <ele>993</ele>
        <time>2021-08-19T12:45:19Z</time>
      </trkpt>
      <trkpt lat="48.06155" lon="6.93734">
        <ele>984</ele>
        <time>2021-08-19T12:45:36Z</time>
      </trkpt>
      <trkpt lat="48.06123" lon="6.93641">
        <ele>982</ele>
        <time>2021-08-19T12:45:53Z</time>
      </trkpt>
      <trkpt lat="48.06113" lon="6.93587">
        <ele>980</ele>
        <time>2021-08-19T12:46:02Z</time>
      </trkpt>
      <trkpt lat="48.06155" lon="6.93523">
        <ele>973</ele>
        <time>2021-08-19T12:46:16Z</time>
      </trkpt>
      <trkpt lat="48.06231" lon="6.93491">
        <ele>966</ele>
        <time>2021-08-19T12:46:34Z</time>
      </trkpt>
      <trkpt lat="48.06363" lon="6.93512">
        <ele>963</ele>
        <time>2021-08-19T12:47:05Z</time>
      </trkpt>
      <trkpt lat="48.06466" lon="6.93536">
        <ele>958</ele>
        <time>2021-08-19T12:47:29Z</time>
      </trkpt>
      <trkpt lat="48.06529" lon="6.93525">
        <ele>957</ele>
        <time>2021-08-19T12:47:44Z</time>
      </trkpt>
      <trkpt lat="48.06579" lon="6.93497">
        <ele>955</ele>
        <time>2021-08-19T12:47:57Z</time>
      </trkpt>
      <trkpt lat="48.06704" lon="6.93495">
        <ele>943</ele>
        <time>2021-08-19T12:48:26Z</time>
      </trkpt>
      <trkpt lat="48.06877" lon="6.93499">
        <ele>937</ele>
        <time>2021-08-19T12:49:06Z</time>
      </trkpt>
      <trkpt lat="48.0694" lon="6.9351">
        <ele>935</ele>
        <time>2021-08-19T12:49:21Z</time>
      </trkpt>
      <trkpt lat="48.07052" lon="6.93602">
        <ele>926</ele>
        <time>2021-08-19T12:49:51Z</time>
      </trkpt>
      <trkpt lat="48.0716" lon="6.93636">
        <ele>912</ele>
        <time>2021-08-19T12:50:17Z</time>
      </trkpt>
      <trkpt lat="48.07369" lon="6.93664">
        <ele>894</ele>
        <time>2021-08-19T12:51:06Z</time>
      </trkpt>
      <trkpt lat="48.0758" lon="6.93705">
        <ele>881</ele>
        <time>2021-08-19T12:51:55Z</time>
      </trkpt>
      <trkpt lat="48.07634" lon="6.93675">
        <ele>875</ele>
        <time>2021-08-19T12:52:09Z</time>
      </trkpt>
      <trkpt lat="48.07659" lon="6.93615">
        <ele>870</ele>
        <time>2021-08-19T12:52:20Z</time>
      </trkpt>
      <trkpt lat="48.07683" lon="6.93465">
        <ele>851</ele>
        <time>2021-08-19T12:52:44Z</time>
      </trkpt>
      <trkpt lat="48.07766" lon="6.93282">
        <ele>821</ele>
        <time>2021-08-19T12:53:18Z</time>
      </trkpt>
      <trkpt lat="48.07805" lon="6.9325">
        <ele>812</ele>
        <time>2021-08-19T12:53:29Z</time>
      </trkpt>
      <trkpt lat="48.07828" lon="6.93244">
        <ele>809</ele>
        <time>2021-08-19T12:53:34Z</time>
      </trkpt>
      <trkpt lat="48.07855" lon="6.93247">
        <ele>807</ele>
        <time>2021-08-19T12:53:41Z</time>
      </trkpt>
      <trkpt lat="48.07872" lon="6.93227">
        <ele>801</ele>
        <time>2021-08-19T12:53:46Z</time>
      </trkpt>
      <trkpt lat="48.07943" lon="6.93274">
        <ele>792</ele>
        <time>2021-08-19T12:54:04Z</time>
      </trkpt>
      <trkpt lat="48.07954" lon="6.93397">
        <ele>786</ele>
        <time>2021-08-19T12:54:23Z</time>
      </trkpt>
      <trkpt lat="48.07911" lon="6.93534">
        <ele>783</ele>
        <time>2021-08-19T12:54:47Z</time>
      </trkpt>
      <trkpt lat="48.07911" lon="6.93563">
        <ele>779</ele>
        <time>2021-08-19T12:54:51Z</time>
      </trkpt>
      <trkpt lat="48.07879" lon="6.93812">
        <ele>769</ele>
        <time>2021-08-19T12:55:31Z</time>
      </trkpt>
      <trkpt lat="48.07879" lon="6.93868">
        <ele>760</ele>
        <time>2021-08-19T12:55:40Z</time>
      </trkpt>
      <trkpt lat="48.07809" lon="6.94021">
        <ele>754</ele>
        <time>2021-08-19T12:56:08Z</time>
      </trkpt>
      <trkpt lat="48.07817" lon="6.94054">
        <ele>746</ele>
        <time>2021-08-19T12:56:14Z</time>
      </trkpt>
      <trkpt lat="48.07782" lon="6.94094">
        <ele>750</ele>
        <time>2021-08-19T12:56:24Z</time>
      </trkpt>
      <trkpt lat="48.07797" lon="6.9415">
        <ele>740</ele>
        <time>2021-08-19T12:56:34Z</time>
      </trkpt>
      <trkpt lat="48.07759" lon="6.94234">
        <ele>738</ele>
        <time>2021-08-19T12:56:49Z</time>
      </trkpt>
      <trkpt lat="48.07755" lon="6.94285">
        <ele>737</ele>
        <time>2021-08-19T12:56:57Z</time>
      </trkpt>
      <trkpt lat="48.07733" lon="6.94321">
        <ele>737</ele>
        <time>2021-08-19T12:57:05Z</time>
      </trkpt>
      <trkpt lat="48.07738" lon="6.94393">
        <ele>735</ele>
        <time>2021-08-19T12:57:16Z</time>
      </trkpt>
      <trkpt lat="48.07682" lon="6.945">
        <ele>736</ele>
        <time>2021-08-19T12:57:38Z</time>
      </trkpt>
      <trkpt lat="48.07659" lon="6.94519">
        <ele>735</ele>
        <time>2021-08-19T12:57:44Z</time>
      </trkpt>
      <trkpt lat="48.0769" lon="6.94584">
        <ele>737</ele>
        <time>2021-08-19T12:57:56Z</time>
      </trkpt>
      <trkpt lat="48.07829" lon="6.94703">
        <ele>735</ele>
        <time>2021-08-19T12:58:34Z</time>
      </trkpt>
      <trkpt lat="48.07877" lon="6.94763">
        <ele>736</ele>
        <time>2021-08-19T12:58:48Z</time>
      </trkpt>
      <trkpt lat="48.07906" lon="6.9479">
        <ele>738</ele>
        <time>2021-08-19T12:58:56Z</time>
      </trkpt>
      <trkpt lat="48.07932" lon="6.94786">
        <ele>740</ele>
        <time>2021-08-19T12:59:02Z</time>
      </trkpt>
      <trkpt lat="48.07966" lon="6.94768">
        <ele>741</ele>
        <time>2021-08-19T12:59:11Z</time>
      </trkpt>
      <trkpt lat="48.08012" lon="6.94805">
        <ele>750</ele>
        <time>2021-08-19T12:59:23Z</time>
      </trkpt>
      <trkpt lat="48.08033" lon="6.94846">
        <ele>761</ele>
        <time>2021-08-19T12:59:31Z</time>
      </trkpt>
      <trkpt lat="48.08181" lon="6.9479">
        <ele>758</ele>
        <time>2021-08-19T13:00:07Z</time>
      </trkpt>
      <trkpt lat="48.08197" lon="6.94794">
        <ele>758</ele>
        <time>2021-08-19T13:00:10Z</time>
      </trkpt>
      <trkpt lat="48.08269" lon="6.94749">
        <ele>748</ele>
        <time>2021-08-19T13:00:29Z</time>
      </trkpt>
      <trkpt lat="48.08311" lon="6.9469">
        <ele>746</ele>
        <time>2021-08-19T13:00:42Z</time>
      </trkpt>
      <trkpt lat="48.08321" lon="6.94608">
        <ele>748</ele>
        <time>2021-08-19T13:00:55Z</time>
      </trkpt>
      <trkpt lat="48.08344" lon="6.94608">
        <ele>751</ele>
        <time>2021-08-19T13:01:00Z</time>
      </trkpt>
      <trkpt lat="48.08364" lon="6.94665">
        <ele>752</ele>
        <time>2021-08-19T13:01:10Z</time>
      </trkpt>
      <trkpt lat="48.08388" lon="6.9469">
        <ele>754</ele>
        <time>2021-08-19T13:01:17Z</time>
      </trkpt>
      <trkpt lat="48.08478" lon="6.94694">
        <ele>764</ele>
        <time>2021-08-19T13:01:38Z</time>
      </trkpt>
      <trkpt lat="48.08536" lon="6.94709">
        <ele>765</ele>
        <time>2021-08-19T13:01:52Z</time>
      </trkpt>
      <trkpt lat="48.08557" lon="6.94733">
        <ele>763</ele>
        <time>2021-08-19T13:01:58Z</time>
      </trkpt>
      <trkpt lat="48.08597" lon="6.9487">
        <ele>771</ele>
        <time>2021-08-19T13:02:22Z</time>
      </trkpt>
      <trkpt lat="48.08599" lon="6.94995">
        <ele>784</ele>
        <time>2021-08-19T13:02:41Z</time>
      </trkpt>
      <trkpt lat="48.08606" lon="6.95104">
        <ele>791</ele>
        <time>2021-08-19T13:02:58Z</time>
      </trkpt>
      <trkpt lat="48.08621" lon="6.95217">
        <ele>797</ele>
        <time>2021-08-19T13:03:16Z</time>
      </trkpt>
      <trkpt lat="48.08678" lon="6.95441">
        <ele>817</ele>
        <time>2021-08-19T13:03:54Z</time>
      </trkpt>
      <trkpt lat="48.08672" lon="6.9555">
        <ele>815</ele>
        <time>2021-08-19T13:04:11Z</time>
      </trkpt>
      <trkpt lat="48.08672" lon="6.95645">
        <ele>815</ele>
        <time>2021-08-19T13:04:25Z</time>
      </trkpt>
      <trkpt lat="48.08693" lon="6.95832">
        <ele>817</ele>
        <time>2021-08-19T13:04:55Z</time>
      </trkpt>
      <trkpt lat="48.08681" lon="6.96053">
        <ele>824</ele>
        <time>2021-08-19T13:05:30Z</time>
      </trkpt>
      <trkpt lat="48.08689" lon="6.96122">
        <ele>824</ele>
        <time>2021-08-19T13:05:40Z</time>
      </trkpt>
      <trkpt lat="48.087" lon="6.96176">
        <ele>826</ele>
        <time>2021-08-19T13:05:49Z</time>
      </trkpt>
      <trkpt lat="48.08699" lon="6.96203">
        <ele>828</ele>
        <time>2021-08-19T13:05:54Z</time>
      </trkpt>
      <trkpt lat="48.08682" lon="6.96267">
        <ele>828</ele>
        <time>2021-08-19T13:06:04Z</time>
      </trkpt>
      <trkpt lat="48.08644" lon="6.96373">
        <ele>829</ele>
        <time>2021-08-19T13:06:23Z</time>
      </trkpt>
      <trkpt lat="48.08621" lon="6.96496">
        <ele>823</ele>
        <time>2021-08-19T13:06:43Z</time>
      </trkpt>
      <trkpt lat="48.08613" lon="6.96559">
        <ele>822</ele>
        <time>2021-08-19T13:06:53Z</time>
      </trkpt>
      <trkpt lat="48.08613" lon="6.96654">
        <ele>822</ele>
        <time>2021-08-19T13:07:08Z</time>
      </trkpt>
      <trkpt lat="48.08557" lon="6.96787">
        <ele>823</ele>
        <time>2021-08-19T13:07:32Z</time>
      </trkpt>
      <trkpt lat="48.08552" lon="6.9684">
        <ele>826</ele>
        <time>2021-08-19T13:07:41Z</time>
      </trkpt>
      <trkpt lat="48.08554" lon="6.96873">
        <ele>827</ele>
        <time>2021-08-19T13:07:46Z</time>
      </trkpt>
      <trkpt lat="48.08553" lon="6.96926">
        <ele>828</ele>
        <time>2021-08-19T13:07:54Z</time>
      </trkpt>
      <trkpt lat="48.08543" lon="6.9699">
        <ele>826</ele>
        <time>2021-08-19T13:08:04Z</time>
      </trkpt>
      <trkpt lat="48.08522" lon="6.97096">
        <ele>820</ele>
        <time>2021-08-19T13:08:22Z</time>
      </trkpt>
      <trkpt lat="48.08509" lon="6.97115">
        <ele>818</ele>
        <time>2021-08-19T13:08:26Z</time>
      </trkpt>
      <trkpt lat="48.08509" lon="6.97157">
        <ele>818</ele>
        <time>2021-08-19T13:08:32Z</time>
      </trkpt>
      <trkpt lat="48.08482" lon="6.97232">
        <ele>818</ele>
        <time>2021-08-19T13:08:46Z</time>
      </trkpt>
      <trkpt lat="48.08485" lon="6.97268">
        <ele>819</ele>
        <time>2021-08-19T13:08:51Z</time>
      </trkpt>
      <trkpt lat="48.08499" lon="6.97289">
        <ele>820</ele>
        <time>2021-08-19T13:08:56Z</time>
      </trkpt>
      <trkpt lat="48.08516" lon="6.97299">
        <ele>824</ele>
        <time>2021-08-19T13:09:00Z</time>
      </trkpt>
      <trkpt lat="48.08535" lon="6.97301">
        <ele>828</ele>
        <time>2021-08-19T13:09:05Z</time>
      </trkpt>
      <trkpt lat="48.08544" lon="6.9729">
        <ele>829</ele>
        <time>2021-08-19T13:09:07Z</time>
      </trkpt>
      <trkpt lat="48.0855" lon="6.97266">
        <ele>829</ele>
        <time>2021-08-19T13:09:11Z</time>
      </trkpt>
      <trkpt lat="48.08562" lon="6.97254">
        <ele>831</ele>
        <time>2021-08-19T13:09:15Z</time>
      </trkpt>
      <trkpt lat="48.08596" lon="6.97253">
        <ele>839</ele>
        <time>2021-08-19T13:09:23Z</time>
      </trkpt>
      <trkpt lat="48.08641" lon="6.97195">
        <ele>847</ele>
        <time>2021-08-19T13:09:37Z</time>
      </trkpt>
      <trkpt lat="48.08659" lon="6.97159">
        <ele>849</ele>
        <time>2021-08-19T13:09:44Z</time>
      </trkpt>
      <trkpt lat="48.08672" lon="6.9716">
        <ele>853</ele>
        <time>2021-08-19T13:09:47Z</time>
      </trkpt>
      <trkpt lat="48.08662" lon="6.97256">
        <ele>858</ele>
        <time>2021-08-19T13:10:02Z</time>
      </trkpt>
      <trkpt lat="48.08661" lon="6.97293">
        <ele>859</ele>
        <time>2021-08-19T13:10:08Z</time>
      </trkpt>
      <trkpt lat="48.08669" lon="6.97324">
        <ele>862</ele>
        <time>2021-08-19T13:10:13Z</time>
      </trkpt>
      <trkpt lat="48.08681" lon="6.97346">
        <ele>867</ele>
        <time>2021-08-19T13:10:17Z</time>
      </trkpt>
      <trkpt lat="48.08697" lon="6.97365">
        <ele>874</ele>
        <time>2021-08-19T13:10:22Z</time>
      </trkpt>
      <trkpt lat="48.08658" lon="6.97602">
        <ele>889</ele>
        <time>2021-08-19T13:11:00Z</time>
      </trkpt>
      <trkpt lat="48.08652" lon="6.9766">
        <ele>893</ele>
        <time>2021-08-19T13:11:09Z</time>
      </trkpt>
      <trkpt lat="48.08676" lon="6.97889">
        <ele>910</ele>
        <time>2021-08-19T13:11:45Z</time>
      </trkpt>
      <trkpt lat="48.08679" lon="6.97948">
        <ele>914</ele>
        <time>2021-08-19T13:11:55Z</time>
      </trkpt>
      <trkpt lat="48.08664" lon="6.9803">
        <ele>917</ele>
        <time>2021-08-19T13:12:08Z</time>
      </trkpt>
      <trkpt lat="48.08669" lon="6.98043">
        <ele>918</ele>
        <time>2021-08-19T13:12:10Z</time>
      </trkpt>
      <trkpt lat="48.08679" lon="6.98032">
        <ele>919</ele>
        <time>2021-08-19T13:12:13Z</time>
      </trkpt>
      <trkpt lat="48.08707" lon="6.97991">
        <ele>921</ele>
        <time>2021-08-19T13:12:22Z</time>
      </trkpt>
      <trkpt lat="48.08745" lon="6.9795">
        <ele>926</ele>
        <time>2021-08-19T13:12:33Z</time>
      </trkpt>
      <trkpt lat="48.08777" lon="6.97924">
        <ele>928</ele>
        <time>2021-08-19T13:12:42Z</time>
      </trkpt>
      <trkpt lat="48.08799" lon="6.97914">
        <ele>930</ele>
        <time>2021-08-19T13:12:47Z</time>
      </trkpt>
      <trkpt lat="48.08837" lon="6.97948">
        <ele>934</ele>
        <time>2021-08-19T13:12:57Z</time>
      </trkpt>
      <trkpt lat="48.08862" lon="6.97985">
        <ele>932</ele>
        <time>2021-08-19T13:13:06Z</time>
      </trkpt>
      <trkpt lat="48.08851" lon="6.98051">
        <ele>937</ele>
        <time>2021-08-19T13:13:16Z</time>
      </trkpt>
      <trkpt lat="48.08821" lon="6.98048">
        <ele>937</ele>
        <time>2021-08-19T13:13:23Z</time>
      </trkpt>
      <trkpt lat="48.08779" lon="6.98078">
        <ele>936</ele>
        <time>2021-08-19T13:13:34Z</time>
      </trkpt>
      <trkpt lat="48.08752" lon="6.98129">
        <ele>942</ele>
        <time>2021-08-19T13:13:44Z</time>
      </trkpt>
      <trkpt lat="48.0872" lon="6.98174">
        <ele>944</ele>
        <time>2021-08-19T13:13:54Z</time>
      </trkpt>
      <trkpt lat="48.08689" lon="6.98203">
        <ele>944</ele>
        <time>2021-08-19T13:14:03Z</time>
      </trkpt>
      <trkpt lat="48.0862" lon="6.98315">
        <ele>950</ele>
        <time>2021-08-19T13:14:27Z</time>
      </trkpt>
      <trkpt lat="48.08601" lon="6.98356">
        <ele>951</ele>
        <time>2021-08-19T13:14:35Z</time>
      </trkpt>
      <trkpt lat="48.08584" lon="6.98419">
        <ele>951</ele>
        <time>2021-08-19T13:14:45Z</time>
      </trkpt>
      <trkpt lat="48.08611" lon="6.98736">
        <ele>961</ele>
        <time>2021-08-19T13:15:35Z</time>
      </trkpt>
      <trkpt lat="48.08581" lon="6.98828">
        <ele>960</ele>
        <time>2021-08-19T13:15:51Z</time>
      </trkpt>
      <trkpt lat="48.08558" lon="6.9885">
        <ele>961</ele>
        <time>2021-08-19T13:15:57Z</time>
      </trkpt>
      <trkpt lat="48.0851" lon="6.98859">
        <ele>958</ele>
        <time>2021-08-19T13:16:09Z</time>
      </trkpt>
      <trkpt lat="48.08419" lon="6.98845">
        <ele>962</ele>
        <time>2021-08-19T13:16:30Z</time>
      </trkpt>
      <trkpt lat="48.08377" lon="6.98843">
        <ele>960</ele>
        <time>2021-08-19T13:16:40Z</time>
      </trkpt>
      <trkpt lat="48.08337" lon="6.98869">
        <ele>968</ele>
        <time>2021-08-19T13:16:50Z</time>
      </trkpt>
      <trkpt lat="48.08306" lon="6.98901">
        <ele>970</ele>
        <time>2021-08-19T13:16:59Z</time>
      </trkpt>
      <trkpt lat="48.08266" lon="6.99009">
        <ele>984</ele>
        <time>2021-08-19T13:17:18Z</time>
      </trkpt>
      <trkpt lat="48.08254" lon="6.99029">
        <ele>985</ele>
        <time>2021-08-19T13:17:22Z</time>
      </trkpt>
      <trkpt lat="48.08239" lon="6.99031">
        <ele>985</ele>
        <time>2021-08-19T13:17:26Z</time>
      </trkpt>
      <trkpt lat="48.08211" lon="6.99012">
        <ele>983</ele>
        <time>2021-08-19T13:17:33Z</time>
      </trkpt>
      <trkpt lat="48.08132" lon="6.98995">
        <ele>984</ele>
        <time>2021-08-19T13:17:52Z</time>
      </trkpt>
      <trkpt lat="48.08075" lon="6.9901">
        <ele>991</ele>
        <time>2021-08-19T13:18:05Z</time>
      </trkpt>
      <trkpt lat="48.08024" lon="6.99073">
        <ele>995</ele>
        <time>2021-08-19T13:18:21Z</time>
      </trkpt>
      <trkpt lat="48.07987" lon="6.99127">
        <ele>995</ele>
        <time>2021-08-19T13:18:33Z</time>
      </trkpt>
      <trkpt lat="48.07925" lon="6.99277">
        <ele>995</ele>
        <time>2021-08-19T13:19:00Z</time>
      </trkpt>
      <trkpt lat="48.0791" lon="6.99328">
        <ele>995</ele>
        <time>2021-08-19T13:19:09Z</time>
      </trkpt>
      <trkpt lat="48.07912" lon="6.99418">
        <ele>999</ele>
        <time>2021-08-19T13:19:23Z</time>
      </trkpt>
      <trkpt lat="48.0793" lon="6.99505">
        <ele>1000</ele>
        <time>2021-08-19T13:19:37Z</time>
      </trkpt>
      <trkpt lat="48.0795" lon="6.99536">
        <ele>1002</ele>
        <time>2021-08-19T13:19:44Z</time>
      </trkpt>
      <trkpt lat="48.08008" lon="6.99576">
        <ele>1013</ele>
        <time>2021-08-19T13:19:59Z</time>
      </trkpt>
      <trkpt lat="48.08016" lon="6.99601">
        <ele>1014</ele>
        <time>2021-08-19T13:20:03Z</time>
      </trkpt>
      <trkpt lat="48.08009" lon="6.99631">
        <ele>1013</ele>
        <time>2021-08-19T13:20:08Z</time>
      </trkpt>
      <trkpt lat="48.07935" lon="6.99734">
        <ele>1001</ele>
        <time>2021-08-19T13:20:32Z</time>
      </trkpt>
      <trkpt lat="48.07913" lon="6.99816">
        <ele>1004</ele>
        <time>2021-08-19T13:20:45Z</time>
      </trkpt>
      <trkpt lat="48.07914" lon="6.99903">
        <ele>1008</ele>
        <time>2021-08-19T13:20:59Z</time>
      </trkpt>
      <trkpt lat="48.07922" lon="7.00029">
        <ele>1011</ele>
        <time>2021-08-19T13:21:19Z</time>
      </trkpt>
      <trkpt lat="48.07948" lon="7.00187">
        <ele>1014</ele>
        <time>2021-08-19T13:21:44Z</time>
      </trkpt>
      <trkpt lat="48.08012" lon="7.00488">
        <ele>1021</ele>
        <time>2021-08-19T13:22:33Z</time>
      </trkpt>
      <trkpt lat="48.08007" lon="7.00541">
        <ele>1022</ele>
        <time>2021-08-19T13:22:42Z</time>
      </trkpt>
      <trkpt lat="48.07976" lon="7.00607">
        <ele>1024</ele>
        <time>2021-08-19T13:22:54Z</time>
      </trkpt>
      <trkpt lat="48.07933" lon="7.00667">
        <ele>1030</ele>
        <time>2021-08-19T13:23:08Z</time>
      </trkpt>
      <trkpt lat="48.07904" lon="7.0067">
        <ele>1031</ele>
        <time>2021-08-19T13:23:15Z</time>
      </trkpt>
      <trkpt lat="48.07872" lon="7.00665">
        <ele>1032</ele>
        <time>2021-08-19T13:23:22Z</time>
      </trkpt>
      <trkpt lat="48.07819" lon="7.00632">
        <ele>1032</ele>
        <time>2021-08-19T13:23:36Z</time>
      </trkpt>
      <trkpt lat="48.07703" lon="7.00509">
        <ele>1038</ele>
        <time>2021-08-19T13:24:09Z</time>
      </trkpt>
      <trkpt lat="48.07615" lon="7.00373">
        <ele>1040</ele>
        <time>2021-08-19T13:24:39Z</time>
      </trkpt>
      <trkpt lat="48.07567" lon="7.00339">
        <ele>1043</ele>
        <time>2021-08-19T13:24:51Z</time>
      </trkpt>
      <trkpt lat="48.0754" lon="7.00343">
        <ele>1045</ele>
        <time>2021-08-19T13:24:57Z</time>
      </trkpt>
      <trkpt lat="48.07498" lon="7.00362">
        <ele>1051</ele>
        <time>2021-08-19T13:25:08Z</time>
      </trkpt>
      <trkpt lat="48.07461" lon="7.00362">
        <ele>1052</ele>
        <time>2021-08-19T13:25:16Z</time>
      </trkpt>
      <trkpt lat="48.07419" lon="7.00347">
        <ele>1050</ele>
        <time>2021-08-19T13:25:26Z</time>
      </trkpt>
      <trkpt lat="48.07384" lon="7.00323">
        <ele>1052</ele>
        <time>2021-08-19T13:25:35Z</time>
      </trkpt>
      <trkpt lat="48.07303" lon="7.00258">
        <ele>1058</ele>
        <time>2021-08-19T13:25:57Z</time>
      </trkpt>
      <trkpt lat="48.07235" lon="7.0021">
        <ele>1062</ele>
        <time>2021-08-19T13:26:14Z</time>
      </trkpt>
      <trkpt lat="48.07195" lon="7.00158">
        <ele>1063</ele>
        <time>2021-08-19T13:26:27Z</time>
      </trkpt>
      <trkpt lat="48.07102" lon="6.99983">
        <ele>1063</ele>
        <time>2021-08-19T13:27:02Z</time>
      </trkpt>
      <trkpt lat="48.07044" lon="6.99886">
        <ele>1060</ele>
        <time>2021-08-19T13:27:22Z</time>
      </trkpt>
      <trkpt lat="48.06971" lon="6.99807">
        <ele>1060</ele>
        <time>2021-08-19T13:27:43Z</time>
      </trkpt>
      <trkpt lat="48.06908" lon="6.99765">
        <ele>1062</ele>
        <time>2021-08-19T13:27:59Z</time>
      </trkpt>
      <trkpt lat="48.06801" lon="6.99728">
        <ele>1072</ele>
        <time>2021-08-19T13:28:25Z</time>
      </trkpt>
      <trkpt lat="48.06714" lon="6.99663">
        <ele>1077</ele>
        <time>2021-08-19T13:28:47Z</time>
      </trkpt>
      <trkpt lat="48.06694" lon="6.99654">
        <ele>1079</ele>
        <time>2021-08-19T13:28:52Z</time>
      </trkpt>
      <trkpt lat="48.06677" lon="6.99635">
        <ele>1078</ele>
        <time>2021-08-19T13:28:57Z</time>
      </trkpt>
      <trkpt lat="48.06667" lon="6.99598">
        <ele>1073</ele>
        <time>2021-08-19T13:29:03Z</time>
      </trkpt>
      <trkpt lat="48.06629" lon="6.99559">
        <ele>1072</ele>
        <time>2021-08-19T13:29:14Z</time>
      </trkpt>
      <trkpt lat="48.06601" lon="6.99536">
        <ele>1073</ele>
        <time>2021-08-19T13:29:22Z</time>
      </trkpt>
      <trkpt lat="48.06576" lon="6.99501">
        <ele>1071</ele>
        <time>2021-08-19T13:29:30Z</time>
      </trkpt>
      <trkpt lat="48.06538" lon="6.99466">
        <ele>1066</ele>
        <time>2021-08-19T13:29:40Z</time>
      </trkpt>
      <trkpt lat="48.06494" lon="6.99451">
        <ele>1065</ele>
        <time>2021-08-19T13:29:51Z</time>
      </trkpt>
      <trkpt lat="48.0648" lon="6.99516">
        <ele>1067</ele>
        <time>2021-08-19T13:30:01Z</time>
      </trkpt>
      <trkpt lat="48.06501" lon="6.99505">
        <ele>1069</ele>
        <time>2021-08-19T13:30:06Z</time>
      </trkpt>
      <trkpt lat="48.06531" lon="6.99503">
        <ele>1069</ele>
        <time>2021-08-19T13:30:13Z</time>
      </trkpt>
      <trkpt lat="48.06579" lon="6.99565">
        <ele>1079</ele>
        <time>2021-08-19T13:30:28Z</time>
      </trkpt>
      <trkpt lat="48.06477" lon="6.99632">
        <ele>1087</ele>
        <time>2021-08-19T13:30:54Z</time>
      </trkpt>
      <trkpt lat="48.06438" lon="6.99691">
        <ele>1095</ele>
        <time>2021-08-19T13:31:07Z</time>
      </trkpt>
      <trkpt lat="48.06378" lon="6.99766">
        <ele>1115</ele>
        <time>2021-08-19T13:31:25Z</time>
      </trkpt>
      <trkpt lat="48.0632" lon="6.99789">
        <ele>1123</ele>
        <time>2021-08-19T13:31:39Z</time>
      </trkpt>
      <trkpt lat="48.06199" lon="6.99903">
        <ele>1145</ele>
        <time>2021-08-19T13:32:13Z</time>
      </trkpt>
      <trkpt lat="48.06129" lon="6.99934">
        <ele>1154</ele>
        <time>2021-08-19T13:32:30Z</time>
      </trkpt>
      <trkpt lat="48.06017" lon="6.99929">
        <ele>1170</ele>
        <time>2021-08-19T13:32:56Z</time>
      </trkpt>
      <trkpt lat="48.05995" lon="6.99937">
        <ele>1173</ele>
        <time>2021-08-19T13:33:01Z</time>
      </trkpt>
      <trkpt lat="48.05866" lon="6.99906">
        <ele>1186</ele>
        <time>2021-08-19T13:33:32Z</time>
      </trkpt>
      <trkpt lat="48.05653" lon="6.99972">
        <ele>1190</ele>
        <time>2021-08-19T13:34:23Z</time>
      </trkpt>
      <trkpt lat="48.05569" lon="6.99989">
        <ele>1191</ele>
        <time>2021-08-19T13:34:42Z</time>
      </trkpt>
      <trkpt lat="48.05538" lon="7.0001">
        <ele>1191</ele>
        <time>2021-08-19T13:34:50Z</time>
      </trkpt>
      <trkpt lat="48.05498" lon="7.00067">
        <ele>1188</ele>
        <time>2021-08-19T13:35:03Z</time>
      </trkpt>
      <trkpt lat="48.05466" lon="7.00145">
        <ele>1174</ele>
        <time>2021-08-19T13:35:18Z</time>
      </trkpt>
      <trkpt lat="48.05444" lon="7.00316">
        <ele>1128</ele>
        <time>2021-08-19T13:35:45Z</time>
      </trkpt>
      <trkpt lat="48.05442" lon="7.00445">
        <ele>1109</ele>
        <time>2021-08-19T13:36:05Z</time>
      </trkpt>
      <trkpt lat="48.05444" lon="7.00453">
        <ele>1109</ele>
        <time>2021-08-19T13:36:06Z</time>
      </trkpt>
      <trkpt lat="48.05427" lon="7.00462">
        <ele>1110</ele>
        <time>2021-08-19T13:36:10Z</time>
      </trkpt>
      <trkpt lat="48.0541" lon="7.0048">
        <ele>1110</ele>
        <time>2021-08-19T13:36:15Z</time>
      </trkpt>
      <trkpt lat="48.05389" lon="7.00518">
        <ele>1113</ele>
        <time>2021-08-19T13:36:23Z</time>
      </trkpt>
      <trkpt lat="48.05367" lon="7.00525">
        <ele>1113</ele>
        <time>2021-08-19T13:36:28Z</time>
      </trkpt>
      <trkpt lat="48.05341" lon="7.00549">
        <ele>1116</ele>
        <time>2021-08-19T13:36:35Z</time>
      </trkpt>
      <trkpt lat="48.0532" lon="7.00549">
        <ele>1117</ele>
        <time>2021-08-19T13:36:40Z</time>
      </trkpt>
      <trkpt lat="48.05278" lon="7.00532">
        <ele>1119</ele>
        <time>2021-08-19T13:36:50Z</time>
      </trkpt>
      <trkpt lat="48.05215" lon="7.00494">
        <ele>1117</ele>
        <time>2021-08-19T13:37:06Z</time>
      </trkpt>
      <trkpt lat="48.05061" lon="7.00469">
        <ele>1115</ele>
        <time>2021-08-19T13:37:43Z</time>
      </trkpt>
      <trkpt lat="48.05024" lon="7.00444">
        <ele>1110</ele>
        <time>2021-08-19T13:37:52Z</time>
      </trkpt>
      <trkpt lat="48.04963" lon="7.00425">
        <ele>1106</ele>
        <time>2021-08-19T13:38:07Z</time>
      </trkpt>
      <trkpt lat="48.0478" lon="7.00464">
        <ele>1125</ele>
        <time>2021-08-19T13:38:50Z</time>
      </trkpt>
      <trkpt lat="48.04729" lon="7.00462">
        <ele>1126</ele>
        <time>2021-08-19T13:39:02Z</time>
      </trkpt>
      <trkpt lat="48.04667" lon="7.00446">
        <ele>1122</ele>
        <time>2021-08-19T13:39:16Z</time>
      </trkpt>
      <trkpt lat="48.04548" lon="7.00374">
        <ele>1124</ele>
        <time>2021-08-19T13:39:46Z</time>
      </trkpt>
      <trkpt lat="48.04458" lon="7.00273">
        <ele>1131</ele>
        <time>2021-08-19T13:40:13Z</time>
      </trkpt>
      <trkpt lat="48.04406" lon="7.00018">
        <ele>1111</ele>
        <time>2021-08-19T13:40:54Z</time>
      </trkpt>
      <trkpt lat="48.04299" lon="6.99861">
        <ele>1110</ele>
        <time>2021-08-19T13:41:29Z</time>
      </trkpt>
      <trkpt lat="48.04238" lon="6.99836">
        <ele>1116</ele>
        <time>2021-08-19T13:41:44Z</time>
      </trkpt>
      <trkpt lat="48.04197" lon="6.9987">
        <ele>1120</ele>
        <time>2021-08-19T13:41:55Z</time>
      </trkpt>
      <trkpt lat="48.04078" lon="6.99927">
        <ele>1119</ele>
        <time>2021-08-19T13:42:24Z</time>
      </trkpt>
      <trkpt lat="48.03991" lon="6.99916">
        <ele>1112</ele>
        <time>2021-08-19T13:42:45Z</time>
      </trkpt>
      <trkpt lat="48.03955" lon="6.99918">
        <ele>1111</ele>
        <time>2021-08-19T13:42:53Z</time>
      </trkpt>
      <trkpt lat="48.03901" lon="6.99968">
        <ele>1117</ele>
        <time>2021-08-19T13:43:08Z</time>
      </trkpt>
      <trkpt lat="48.03876" lon="6.99951">
        <ele>1115</ele>
        <time>2021-08-19T13:43:14Z</time>
      </trkpt>
      <trkpt lat="48.03809" lon="6.9987">
        <ele>1112</ele>
        <time>2021-08-19T13:43:34Z</time>
      </trkpt>
      <trkpt lat="48.03798" lon="6.99705">
        <ele>1107</ele>
        <time>2021-08-19T13:44:00Z</time>
      </trkpt>
      <trkpt lat="48.03835" lon="6.99366">
        <ele>1089</ele>
        <time>2021-08-19T13:44:54Z</time>
      </trkpt>
      <trkpt lat="48.03763" lon="6.99091">
        <ele>1099</ele>
        <time>2021-08-19T13:45:40Z</time>
      </trkpt>
      <trkpt lat="48.03696" lon="6.99003">
        <ele>1102</ele>
        <time>2021-08-19T13:46:01Z</time>
      </trkpt>
      <trkpt lat="48.0365" lon="6.98973">
        <ele>1109</ele>
        <time>2021-08-19T13:46:12Z</time>
      </trkpt>
      <trkpt lat="48.03657" lon="6.98902">
        <ele>1103</ele>
        <time>2021-08-19T13:46:24Z</time>
      </trkpt>
      <trkpt lat="48.03713" lon="6.9872">
        <ele>1093</ele>
        <time>2021-08-19T13:46:55Z</time>
      </trkpt>
      <trkpt lat="48.0372" lon="6.98419">
        <ele>1083</ele>
        <time>2021-08-19T13:47:42Z</time>
      </trkpt>
      <trkpt lat="48.03614" lon="6.98115">
        <ele>1086</ele>
        <time>2021-08-19T13:48:36Z</time>
      </trkpt>
      <trkpt lat="48.0362" lon="6.98055">
        <ele>1084</ele>
        <time>2021-08-19T13:48:45Z</time>
      </trkpt>
      <trkpt lat="48.03682" lon="6.97958">
        <ele>1064</ele>
        <time>2021-08-19T13:49:06Z</time>
      </trkpt>
      <trkpt lat="48.03708" lon="6.97972">
        <ele>1058</ele>
        <time>2021-08-19T13:49:12Z</time>
      </trkpt>
      <trkpt lat="48.03713" lon="6.97868">
        <ele>1043</ele>
        <time>2021-08-19T13:49:29Z</time>
      </trkpt>
      <trkpt lat="48.03736" lon="6.97884">
        <ele>1038</ele>
        <time>2021-08-19T13:49:35Z</time>
      </trkpt>
      <trkpt lat="48.03753" lon="6.97869">
        <ele>1030</ele>
        <time>2021-08-19T13:49:39Z</time>
      </trkpt>
      <trkpt lat="48.0378" lon="6.97882">
        <ele>1026</ele>
        <time>2021-08-19T13:49:46Z</time>
      </trkpt>
      <trkpt lat="48.03792" lon="6.9785">
        <ele>1020</ele>
        <time>2021-08-19T13:49:52Z</time>
      </trkpt>
      <trkpt lat="48.03775" lon="6.97805">
        <ele>1016</ele>
        <time>2021-08-19T13:50:00Z</time>
      </trkpt>
      <trkpt lat="48.03796" lon="6.97731">
        <ele>997</ele>
        <time>2021-08-19T13:50:12Z</time>
      </trkpt>
      <trkpt lat="48.03779" lon="6.97641">
        <ele>978</ele>
        <time>2021-08-19T13:50:27Z</time>
      </trkpt>
      <trkpt lat="48.03807" lon="6.97635">
        <ele>973</ele>
        <time>2021-08-19T13:50:33Z</time>
      </trkpt>
      <trkpt lat="48.03797" lon="6.97598">
        <ele>965</ele>
        <time>2021-08-19T13:50:40Z</time>
      </trkpt>
      <trkpt lat="48.03803" lon="6.97562">
        <ele>957</ele>
        <time>2021-08-19T13:50:45Z</time>
      </trkpt>
      <trkpt lat="48.03796" lon="6.97519">
        <ele>950</ele>
        <time>2021-08-19T13:50:52Z</time>
      </trkpt>
      <trkpt lat="48.03812" lon="6.97501">
        <ele>945</ele>
        <time>2021-08-19T13:50:57Z</time>
      </trkpt>
      <trkpt lat="48.03795" lon="6.97412">
        <ele>934</ele>
        <time>2021-08-19T13:51:11Z</time>
      </trkpt>
      <trkpt lat="48.03804" lon="6.97317">
        <ele>921</ele>
        <time>2021-08-19T13:51:26Z</time>
      </trkpt>
      <trkpt lat="48.03814" lon="6.97302">
        <ele>919</ele>
        <time>2021-08-19T13:51:30Z</time>
      </trkpt>
      <trkpt lat="48.03813" lon="6.97241">
        <ele>914</ele>
        <time>2021-08-19T13:51:39Z</time>
      </trkpt>
      <trkpt lat="48.03794" lon="6.97193">
        <ele>912</ele>
        <time>2021-08-19T13:51:48Z</time>
      </trkpt>
      <trkpt lat="48.03766" lon="6.97188">
        <ele>910</ele>
        <time>2021-08-19T13:51:55Z</time>
      </trkpt>
      <trkpt lat="48.03742" lon="6.97159">
        <ele>908</ele>
        <time>2021-08-19T13:52:02Z</time>
      </trkpt>
      <trkpt lat="48.03705" lon="6.97139">
        <ele>910</ele>
        <time>2021-08-19T13:52:11Z</time>
      </trkpt>
      <trkpt lat="48.03695" lon="6.9707">
        <ele>907</ele>
        <time>2021-08-19T13:52:22Z</time>
      </trkpt>
      <trkpt lat="48.03669" lon="6.97057">
        <ele>907</ele>
        <time>2021-08-19T13:52:28Z</time>
      </trkpt>
      <trkpt lat="48.03653" lon="6.97016">
        <ele>908</ele>
        <time>2021-08-19T13:52:36Z</time>
      </trkpt>
      <trkpt lat="48.03654" lon="6.96991">
        <ele>905</ele>
        <time>2021-08-19T13:52:40Z</time>
      </trkpt>
      <trkpt lat="48.03603" lon="6.96925">
        <ele>914</ele>
        <time>2021-08-19T13:52:55Z</time>
      </trkpt>
      <trkpt lat="48.03477" lon="6.96635">
        <ele>907</ele>
        <time>2021-08-19T13:53:49Z</time>
      </trkpt>
      <trkpt lat="48.03476" lon="6.96606">
        <ele>903</ele>
        <time>2021-08-19T13:53:54Z</time>
      </trkpt>
      <trkpt lat="48.03496" lon="6.96619">
        <ele>899</ele>
        <time>2021-08-19T13:53:59Z</time>
      </trkpt>
      <trkpt lat="48.03628" lon="6.96893">
        <ele>903</ele>
        <time>2021-08-19T13:54:52Z</time>
      </trkpt>
      <trkpt lat="48.03646" lon="6.96903">
        <ele>900</ele>
        <time>2021-08-19T13:54:56Z</time>
      </trkpt>
      <trkpt lat="48.0366" lon="6.96924">
        <ele>898</ele>
        <time>2021-08-19T13:55:01Z</time>
      </trkpt>
      <trkpt lat="48.03674" lon="6.96911">
        <ele>896</ele>
        <time>2021-08-19T13:55:05Z</time>
      </trkpt>
      <trkpt lat="48.03667" lon="6.96888">
        <ele>894</ele>
        <time>2021-08-19T13:55:09Z</time>
      </trkpt>
      <trkpt lat="48.03704" lon="6.96823">
        <ele>902</ele>
        <time>2021-08-19T13:55:22Z</time>
      </trkpt>
      <trkpt lat="48.03727" lon="6.96834">
        <ele>909</ele>
        <time>2021-08-19T13:55:28Z</time>
      </trkpt>
      <trkpt lat="48.03752" lon="6.96909">
        <ele>912</ele>
        <time>2021-08-19T13:55:41Z</time>
      </trkpt>
      <trkpt lat="48.03799" lon="6.97003">
        <ele>922</ele>
        <time>2021-08-19T13:55:59Z</time>
      </trkpt>
      <trkpt lat="48.03811" lon="6.9704">
        <ele>922</ele>
        <time>2021-08-19T13:56:06Z</time>
      </trkpt>
      <trkpt lat="48.0382" lon="6.97034">
        <ele>926</ele>
        <time>2021-08-19T13:56:08Z</time>
      </trkpt>
      <trkpt lat="48.03798" lon="6.96939">
        <ele>928</ele>
        <time>2021-08-19T13:56:24Z</time>
      </trkpt>
      <trkpt lat="48.03832" lon="6.96792">
        <ele>944</ele>
        <time>2021-08-19T13:56:48Z</time>
      </trkpt>
      <trkpt lat="48.03848" lon="6.96772">
        <ele>948</ele>
        <time>2021-08-19T13:56:53Z</time>
      </trkpt>
      <trkpt lat="48.03873" lon="6.96763">
        <ele>955</ele>
        <time>2021-08-19T13:56:59Z</time>
      </trkpt>
      <trkpt lat="48.03868" lon="6.96831">
        <ele>958</ele>
        <time>2021-08-19T13:57:09Z</time>
      </trkpt>
      <trkpt lat="48.03911" lon="6.96983">
        <ele>967</ele>
        <time>2021-08-19T13:57:35Z</time>
      </trkpt>
      <trkpt lat="48.03924" lon="6.97007">
        <ele>971</ele>
        <time>2021-08-19T13:57:40Z</time>
      </trkpt>
      <trkpt lat="48.03936" lon="6.97005">
        <ele>975</ele>
        <time>2021-08-19T13:57:43Z</time>
      </trkpt>
      <trkpt lat="48.03939" lon="6.96854">
        <ele>981</ele>
        <time>2021-08-19T13:58:06Z</time>
      </trkpt>
      <trkpt lat="48.03954" lon="6.96816">
        <ele>985</ele>
        <time>2021-08-19T13:58:13Z</time>
      </trkpt>
      <trkpt lat="48.03977" lon="6.96786">
        <ele>991</ele>
        <time>2021-08-19T13:58:20Z</time>
      </trkpt>
      <trkpt lat="48.04002" lon="6.96734">
        <ele>996</ele>
        <time>2021-08-19T13:58:30Z</time>
      </trkpt>
      <trkpt lat="48.04007" lon="6.96692">
        <ele>996</ele>
        <time>2021-08-19T13:58:37Z</time>
      </trkpt>
      <trkpt lat="48.04019" lon="6.96653">
        <ele>1000</ele>
        <time>2021-08-19T13:58:44Z</time>
      </trkpt>
      <trkpt lat="48.0402" lon="6.966">
        <ele>1004</ele>
        <time>2021-08-19T13:58:52Z</time>
      </trkpt>
      <trkpt lat="48.04034" lon="6.96541">
        <ele>1016</ele>
        <time>2021-08-19T13:59:02Z</time>
      </trkpt>
      <trkpt lat="48.04024" lon="6.96486">
        <ele>1023</ele>
        <time>2021-08-19T13:59:11Z</time>
      </trkpt>
      <trkpt lat="48.03989" lon="6.96422">
        <ele>1026</ele>
        <time>2021-08-19T13:59:24Z</time>
      </trkpt>
      <trkpt lat="48.03883" lon="6.96282">
        <ele>1031</ele>
        <time>2021-08-19T13:59:57Z</time>
      </trkpt>
      <trkpt lat="48.03875" lon="6.96256">
        <ele>1035</ele>
        <time>2021-08-19T14:00:01Z</time>
      </trkpt>
      <trkpt lat="48.03908" lon="6.96282">
        <ele>1038</ele>
        <time>2021-08-19T14:00:10Z</time>
      </trkpt>
      <trkpt lat="48.03976" lon="6.96303">
        <ele>1048</ele>
        <time>2021-08-19T14:00:26Z</time>
      </trkpt>
      <trkpt lat="48.04049" lon="6.9635">
        <ele>1055</ele>
        <time>2021-08-19T14:00:45Z</time>
      </trkpt>
      <trkpt lat="48.04122" lon="6.96427">
        <ele>1064</ele>
        <time>2021-08-19T14:01:05Z</time>
      </trkpt>
      <trkpt lat="48.04151" lon="6.96497">
        <ele>1067</ele>
        <time>2021-08-19T14:01:18Z</time>
      </trkpt>
      <trkpt lat="48.0419" lon="6.96633">
        <ele>1067</ele>
        <time>2021-08-19T14:01:41Z</time>
      </trkpt>
      <trkpt lat="48.04213" lon="6.96689">
        <ele>1070</ele>
        <time>2021-08-19T14:01:52Z</time>
      </trkpt>
      <trkpt lat="48.0424" lon="6.96731">
        <ele>1074</ele>
        <time>2021-08-19T14:02:01Z</time>
      </trkpt>
      <trkpt lat="48.04267" lon="6.9675">
        <ele>1076</ele>
        <time>2021-08-19T14:02:08Z</time>
      </trkpt>
      <trkpt lat="48.0433" lon="6.96761">
        <ele>1077</ele>
        <time>2021-08-19T14:02:23Z</time>
      </trkpt>
      <trkpt lat="48.04357" lon="6.96753">
        <ele>1079</ele>
        <time>2021-08-19T14:02:29Z</time>
      </trkpt>
      <trkpt lat="48.04386" lon="6.96734">
        <ele>1084</ele>
        <time>2021-08-19T14:02:36Z</time>
      </trkpt>
      <trkpt lat="48.0438" lon="6.96717">
        <ele>1088</ele>
        <time>2021-08-19T14:02:39Z</time>
      </trkpt>
      <trkpt lat="48.04348" lon="6.96725">
        <ele>1087</ele>
        <time>2021-08-19T14:02:47Z</time>
      </trkpt>
      <trkpt lat="48.04312" lon="6.96715">
        <ele>1087</ele>
        <time>2021-08-19T14:02:56Z</time>
      </trkpt>
      <trkpt lat="48.04288" lon="6.96669">
        <ele>1093</ele>
        <time>2021-08-19T14:03:05Z</time>
      </trkpt>
      <trkpt lat="48.04298" lon="6.9666">
        <ele>1097</ele>
        <time>2021-08-19T14:03:07Z</time>
      </trkpt>
      <trkpt lat="48.04314" lon="6.96674">
        <ele>1098</ele>
        <time>2021-08-19T14:03:12Z</time>
      </trkpt>
      <trkpt lat="48.04408" lon="6.96676">
        <ele>1097</ele>
        <time>2021-08-19T14:03:34Z</time>
      </trkpt>
      <trkpt lat="48.04428" lon="6.96671">
        <ele>1095</ele>
        <time>2021-08-19T14:03:38Z</time>
      </trkpt>
      <trkpt lat="48.04431" lon="6.96635">
        <ele>1100</ele>
        <time>2021-08-19T14:03:44Z</time>
      </trkpt>
      <trkpt lat="48.04428" lon="6.96603">
        <ele>1107</ele>
        <time>2021-08-19T14:03:49Z</time>
      </trkpt>
      <trkpt lat="48.04413" lon="6.96636">
        <ele>1105</ele>
        <time>2021-08-19T14:03:55Z</time>
      </trkpt>
      <trkpt lat="48.04399" lon="6.9665">
        <ele>1104</ele>
        <time>2021-08-19T14:03:59Z</time>
      </trkpt>
      <trkpt lat="48.04378" lon="6.96647">
        <ele>1105</ele>
        <time>2021-08-19T14:04:04Z</time>
      </trkpt>
      <trkpt lat="48.04349" lon="6.96625">
        <ele>1112</ele>
        <time>2021-08-19T14:04:12Z</time>
      </trkpt>
      <trkpt lat="48.04306" lon="6.96572">
        <ele>1116</ele>
        <time>2021-08-19T14:04:25Z</time>
      </trkpt>
      <trkpt lat="48.04281" lon="6.96537">
        <ele>1115</ele>
        <time>2021-08-19T14:04:33Z</time>
      </trkpt>
      <trkpt lat="48.04273" lon="6.96485">
        <ele>1119</ele>
        <time>2021-08-19T14:04:41Z</time>
      </trkpt>
      <trkpt lat="48.04261" lon="6.96343">
        <ele>1125</ele>
        <time>2021-08-19T14:05:03Z</time>
      </trkpt>
      <trkpt lat="48.0427" lon="6.96275">
        <ele>1128</ele>
        <time>2021-08-19T14:05:14Z</time>
      </trkpt>
      <trkpt lat="48.04256" lon="6.9622">
        <ele>1132</ele>
        <time>2021-08-19T14:05:23Z</time>
      </trkpt>
      <trkpt lat="48.04126" lon="6.96062">
        <ele>1139</ele>
        <time>2021-08-19T14:06:03Z</time>
      </trkpt>
      <trkpt lat="48.03999" lon="6.95915">
        <ele>1155</ele>
        <time>2021-08-19T14:06:40Z</time>
      </trkpt>
      <trkpt lat="48.03881" lon="6.95595">
        <ele>1155</ele>
        <time>2021-08-19T14:07:37Z</time>
      </trkpt>
      <trkpt lat="48.03922" lon="6.95541">
        <ele>1156</ele>
        <time>2021-08-19T14:07:50Z</time>
      </trkpt>
      <trkpt lat="48.03937" lon="6.9547">
        <ele>1157</ele>
        <time>2021-08-19T14:08:02Z</time>
      </trkpt>
      <trkpt lat="48.03943" lon="6.95384">
        <ele>1157</ele>
        <time>2021-08-19T14:08:15Z</time>
      </trkpt>
      <trkpt lat="48.03945" lon="6.95269">
        <ele>1157</ele>
        <time>2021-08-19T14:08:33Z</time>
      </trkpt>
      <trkpt lat="48.03956" lon="6.95157">
        <ele>1154</ele>
        <time>2021-08-19T14:08:51Z</time>
      </trkpt>
      <trkpt lat="48.03979" lon="6.95077">
        <ele>1150</ele>
        <time>2021-08-19T14:09:04Z</time>
      </trkpt>
      <trkpt lat="48.03976" lon="6.95045">
        <ele>1146</ele>
        <time>2021-08-19T14:09:09Z</time>
      </trkpt>
      <trkpt lat="48.03983" lon="6.9502">
        <ele>1144</ele>
        <time>2021-08-19T14:09:14Z</time>
      </trkpt>
      <trkpt lat="48.0401" lon="6.94964">
        <ele>1140</ele>
        <time>2021-08-19T14:09:24Z</time>
      </trkpt>
      <trkpt lat="48.04029" lon="6.94918">
        <ele>1137</ele>
        <time>2021-08-19T14:09:33Z</time>
      </trkpt>
      <trkpt lat="48.03916" lon="6.94862">
        <ele>1135</ele>
        <time>2021-08-19T14:10:01Z</time>
      </trkpt>
      <trkpt lat="48.03904" lon="6.94762">
        <ele>1146</ele>
        <time>2021-08-19T14:10:16Z</time>
      </trkpt>
      <trkpt lat="48.03916" lon="6.94701">
        <ele>1146</ele>
        <time>2021-08-19T14:10:26Z</time>
      </trkpt>
      <trkpt lat="48.03883" lon="6.94531">
        <ele>1156</ele>
        <time>2021-08-19T14:10:54Z</time>
      </trkpt>
      <trkpt lat="48.03883" lon="6.94456">
        <ele>1157</ele>
        <time>2021-08-19T14:11:06Z</time>
      </trkpt>
      <trkpt lat="48.03867" lon="6.94428">
        <ele>1161</ele>
        <time>2021-08-19T14:11:11Z</time>
      </trkpt>
      <trkpt lat="48.03839" lon="6.94398">
        <ele>1165</ele>
        <time>2021-08-19T14:11:20Z</time>
      </trkpt>
      <trkpt lat="48.03751" lon="6.94419">
        <ele>1167</ele>
        <time>2021-08-19T14:11:40Z</time>
      </trkpt>
      <trkpt lat="48.03705" lon="6.94442">
        <ele>1166</ele>
        <time>2021-08-19T14:11:52Z</time>
      </trkpt>
      <trkpt lat="48.03624" lon="6.9451">
        <ele>1166</ele>
        <time>2021-08-19T14:12:13Z</time>
      </trkpt>
      <trkpt lat="48.03583" lon="6.94512">
        <ele>1164</ele>
        <time>2021-08-19T14:12:23Z</time>
      </trkpt>
      <trkpt lat="48.03566" lon="6.94496">
        <ele>1163</ele>
        <time>2021-08-19T14:12:28Z</time>
      </trkpt>
      <trkpt lat="48.03459" lon="6.94414">
        <ele>1165</ele>
        <time>2021-08-19T14:12:56Z</time>
      </trkpt>
      <trkpt lat="48.0341" lon="6.94363">
        <ele>1163</ele>
        <time>2021-08-19T14:13:10Z</time>
      </trkpt>
      <trkpt lat="48.034" lon="6.94317">
        <ele>1161</ele>
        <time>2021-08-19T14:13:17Z</time>
      </trkpt>
      <trkpt lat="48.03256" lon="6.94192">
        <ele>1150</ele>
        <time>2021-08-19T14:13:56Z</time>
      </trkpt>
      <trkpt lat="48.03241" lon="6.94133">
        <ele>1144</ele>
        <time>2021-08-19T14:14:06Z</time>
      </trkpt>
      <trkpt lat="48.03225" lon="6.94054">
        <ele>1138</ele>
        <time>2021-08-19T14:14:19Z</time>
      </trkpt>
      <trkpt lat="48.032" lon="6.9401">
        <ele>1138</ele>
        <time>2021-08-19T14:14:28Z</time>
      </trkpt>
      <trkpt lat="48.0316" lon="6.94093">
        <ele>1149</ele>
        <time>2021-08-19T14:14:44Z</time>
      </trkpt>
      <trkpt lat="48.03139" lon="6.94116">
        <ele>1151</ele>
        <time>2021-08-19T14:14:50Z</time>
      </trkpt>
      <trkpt lat="48.0311" lon="6.94185">
        <ele>1159</ele>
        <time>2021-08-19T14:15:03Z</time>
      </trkpt>
      <trkpt lat="48.03023" lon="6.94207">
        <ele>1158</ele>
        <time>2021-08-19T14:15:23Z</time>
      </trkpt>
      <trkpt lat="48.02995" lon="6.94255">
        <ele>1160</ele>
        <time>2021-08-19T14:15:33Z</time>
      </trkpt>
      <trkpt lat="48.02969" lon="6.94309">
        <ele>1159</ele>
        <time>2021-08-19T14:15:44Z</time>
      </trkpt>
      <trkpt lat="48.02964" lon="6.94394">
        <ele>1157</ele>
        <time>2021-08-19T14:15:57Z</time>
      </trkpt>
      <trkpt lat="48.0244" lon="6.93867">
        <ele>1151</ele>
        <time>2021-08-19T14:18:24Z</time>
      </trkpt>
      <trkpt lat="48.02384" lon="6.93838">
        <ele>1147</ele>
        <time>2021-08-19T14:18:38Z</time>
      </trkpt>
      <trkpt lat="48.02271" lon="6.93646">
        <ele>1131</ele>
        <time>2021-08-19T14:19:18Z</time>
      </trkpt>
      <trkpt lat="48.02239" lon="6.93607">
        <ele>1129</ele>
        <time>2021-08-19T14:19:28Z</time>
      </trkpt>
      <trkpt lat="48.02122" lon="6.93409">
        <ele>1137</ele>
        <time>2021-08-19T14:20:09Z</time>
      </trkpt>
      <trkpt lat="48.01945" lon="6.93275">
        <ele>1118</ele>
        <time>2021-08-19T14:20:55Z</time>
      </trkpt>
      <trkpt lat="48.01744" lon="6.93207">
        <ele>1116</ele>
        <time>2021-08-19T14:21:44Z</time>
      </trkpt>
      <trkpt lat="48.0172" lon="6.93193">
        <ele>1113</ele>
        <time>2021-08-19T14:21:50Z</time>
      </trkpt>
      <trkpt lat="48.01686" lon="6.93029">
        <ele>1102</ele>
        <time>2021-08-19T14:22:16Z</time>
      </trkpt>
      <trkpt lat="48.01681" lon="6.92985">
        <ele>1101</ele>
        <time>2021-08-19T14:22:23Z</time>
      </trkpt>
      <trkpt lat="48.01668" lon="6.92969">
        <ele>1102</ele>
        <time>2021-08-19T14:22:27Z</time>
      </trkpt>
      <trkpt lat="48.01653" lon="6.92913">
        <ele>1099</ele>
        <time>2021-08-19T14:22:37Z</time>
      </trkpt>
      <trkpt lat="48.01639" lon="6.92884">
        <ele>1098</ele>
        <time>2021-08-19T14:22:42Z</time>
      </trkpt>
      <trkpt lat="48.01615" lon="6.92851">
        <ele>1099</ele>
        <time>2021-08-19T14:22:50Z</time>
      </trkpt>
      <trkpt lat="48.01594" lon="6.92809">
        <ele>1104</ele>
        <time>2021-08-19T14:22:58Z</time>
      </trkpt>
      <trkpt lat="48.01579" lon="6.92758">
        <ele>1110</ele>
        <time>2021-08-19T14:23:07Z</time>
      </trkpt>
      <trkpt lat="48.01561" lon="6.92719">
        <ele>1116</ele>
        <time>2021-08-19T14:23:14Z</time>
      </trkpt>
      <trkpt lat="48.01534" lon="6.92679">
        <ele>1119</ele>
        <time>2021-08-19T14:23:23Z</time>
      </trkpt>
      <trkpt lat="48.01516" lon="6.92663">
        <ele>1119</ele>
        <time>2021-08-19T14:23:28Z</time>
      </trkpt>
      <trkpt lat="48.01475" lon="6.92638">
        <ele>1117</ele>
        <time>2021-08-19T14:23:38Z</time>
      </trkpt>
      <trkpt lat="48.01424" lon="6.92579">
        <ele>1126</ele>
        <time>2021-08-19T14:23:53Z</time>
      </trkpt>
      <trkpt lat="48.01342" lon="6.92551">
        <ele>1122</ele>
        <time>2021-08-19T14:24:13Z</time>
      </trkpt>
      <trkpt lat="48.01312" lon="6.92562">
        <ele>1115</ele>
        <time>2021-08-19T14:24:20Z</time>
      </trkpt>
      <trkpt lat="48.01253" lon="6.92541">
        <ele>1115</ele>
        <time>2021-08-19T14:24:34Z</time>
      </trkpt>
      <trkpt lat="48.01219" lon="6.92542">
        <ele>1110</ele>
        <time>2021-08-19T14:24:42Z</time>
      </trkpt>
      <trkpt lat="48.01205" lon="6.92535">
        <ele>1110</ele>
        <time>2021-08-19T14:24:46Z</time>
      </trkpt>
      <trkpt lat="48.01159" lon="6.92468">
        <ele>1111</ele>
        <time>2021-08-19T14:25:01Z</time>
      </trkpt>
      <trkpt lat="48.01129" lon="6.92411">
        <ele>1110</ele>
        <time>2021-08-19T14:25:12Z</time>
      </trkpt>
      <trkpt lat="48.0111" lon="6.92363">
        <ele>1110</ele>
        <time>2021-08-19T14:25:21Z</time>
      </trkpt>
      <trkpt lat="48.01098" lon="6.92307">
        <ele>1110</ele>
        <time>2021-08-19T14:25:30Z</time>
      </trkpt>
      <trkpt lat="48.01103" lon="6.9225">
        <ele>1108</ele>
        <time>2021-08-19T14:25:39Z</time>
      </trkpt>
      <trkpt lat="48.01112" lon="6.92227">
        <ele>1106</ele>
        <time>2021-08-19T14:25:43Z</time>
      </trkpt>
      <trkpt lat="48.01081" lon="6.92204">
        <ele>1101</ele>
        <time>2021-08-19T14:25:51Z</time>
      </trkpt>
      <trkpt lat="48.0106" lon="6.92175">
        <ele>1099</ele>
        <time>2021-08-19T14:25:58Z</time>
      </trkpt>
      <trkpt lat="48.01045" lon="6.92117">
        <ele>1094</ele>
        <time>2021-08-19T14:26:08Z</time>
      </trkpt>
      <trkpt lat="48.01052" lon="6.92019">
        <ele>1083</ele>
        <time>2021-08-19T14:26:23Z</time>
      </trkpt>
      <trkpt lat="48.01045" lon="6.9195">
        <ele>1079</ele>
        <time>2021-08-19T14:26:34Z</time>
      </trkpt>
      <trkpt lat="48.01028" lon="6.91858">
        <ele>1078</ele>
        <time>2021-08-19T14:26:49Z</time>
      </trkpt>
      <trkpt lat="48.01002" lon="6.91658">
        <ele>1074</ele>
        <time>2021-08-19T14:27:21Z</time>
      </trkpt>
      <trkpt lat="48.00992" lon="6.91489">
        <ele>1064</ele>
        <time>2021-08-19T14:27:47Z</time>
      </trkpt>
      <trkpt lat="48.00992" lon="6.91347">
        <ele>1054</ele>
        <time>2021-08-19T14:28:09Z</time>
      </trkpt>
      <trkpt lat="48.0104" lon="6.91162">
        <ele>1033</ele>
        <time>2021-08-19T14:28:40Z</time>
      </trkpt>
      <trkpt lat="48.01042" lon="6.91045">
        <ele>1029</ele>
        <time>2021-08-19T14:28:59Z</time>
      </trkpt>
      <trkpt lat="48.01051" lon="6.91037">
        <ele>1029</ele>
        <time>2021-08-19T14:29:01Z</time>
      </trkpt>
      <trkpt lat="48.01007" lon="6.90829">
        <ele>1006</ele>
        <time>2021-08-19T14:29:35Z</time>
      </trkpt>
      <trkpt lat="48.00996" lon="6.90769">
        <ele>997</ele>
        <time>2021-08-19T14:29:45Z</time>
      </trkpt>
      <trkpt lat="48.00991" lon="6.90702">
        <ele>988</ele>
        <time>2021-08-19T14:29:55Z</time>
      </trkpt>
      <trkpt lat="48.00961" lon="6.90553">
        <ele>967</ele>
        <time>2021-08-19T14:30:20Z</time>
      </trkpt>
      <trkpt lat="48.00934" lon="6.90509">
        <ele>958</ele>
        <time>2021-08-19T14:30:29Z</time>
      </trkpt>
      <trkpt lat="48.00908" lon="6.90427">
        <ele>950</ele>
        <time>2021-08-19T14:30:43Z</time>
      </trkpt>
      <trkpt lat="48.00898" lon="6.90327">
        <ele>940</ele>
        <time>2021-08-19T14:30:59Z</time>
      </trkpt>
      <trkpt lat="48.0091" lon="6.90274">
        <ele>945</ele>
        <time>2021-08-19T14:31:08Z</time>
      </trkpt>
      <trkpt lat="48.00928" lon="6.90229">
        <ele>943</ele>
        <time>2021-08-19T14:31:16Z</time>
      </trkpt>
      <trkpt lat="48.00951" lon="6.90266">
        <ele>939</ele>
        <time>2021-08-19T14:31:24Z</time>
      </trkpt>
      <trkpt lat="48.00971" lon="6.90327">
        <ele>941</ele>
        <time>2021-08-19T14:31:34Z</time>
      </trkpt>
      <trkpt lat="48.01011" lon="6.90389">
        <ele>948</ele>
        <time>2021-08-19T14:31:48Z</time>
      </trkpt>
      <trkpt lat="48.01094" lon="6.90408">
        <ele>943</ele>
        <time>2021-08-19T14:32:08Z</time>
      </trkpt>
      <trkpt lat="48.0112" lon="6.90403">
        <ele>942</ele>
        <time>2021-08-19T14:32:14Z</time>
      </trkpt>
      <trkpt lat="48.01156" lon="6.90379">
        <ele>936</ele>
        <time>2021-08-19T14:32:23Z</time>
      </trkpt>
      <trkpt lat="48.01365" lon="6.90306">
        <ele>913</ele>
        <time>2021-08-19T14:33:13Z</time>
      </trkpt>
      <trkpt lat="48.01423" lon="6.90315">
        <ele>905</ele>
        <time>2021-08-19T14:33:27Z</time>
      </trkpt>
      <trkpt lat="48.01463" lon="6.90364">
        <ele>902</ele>
        <time>2021-08-19T14:33:39Z</time>
      </trkpt>
      <trkpt lat="48.01515" lon="6.90459">
        <ele>907</ele>
        <time>2021-08-19T14:33:58Z</time>
      </trkpt>
      <trkpt lat="48.01565" lon="6.90525">
        <ele>897</ele>
        <time>2021-08-19T14:34:13Z</time>
      </trkpt>
      <trkpt lat="48.01632" lon="6.90695">
        <ele>897</ele>
        <time>2021-08-19T14:34:44Z</time>
      </trkpt>
      <trkpt lat="48.01672" lon="6.9078">
        <ele>885</ele>
        <time>2021-08-19T14:35:00Z</time>
      </trkpt>
      <trkpt lat="48.01681" lon="6.90846">
        <ele>885</ele>
        <time>2021-08-19T14:35:11Z</time>
      </trkpt>
      <trkpt lat="48.01698" lon="6.9091">
        <ele>878</ele>
        <time>2021-08-19T14:35:22Z</time>
      </trkpt>
      <trkpt lat="48.0169" lon="6.91001">
        <ele>884</ele>
        <time>2021-08-19T14:35:36Z</time>
      </trkpt>
      <trkpt lat="48.01701" lon="6.91029">
        <ele>886</ele>
        <time>2021-08-19T14:35:41Z</time>
      </trkpt>
      <trkpt lat="48.01721" lon="6.91036">
        <ele>883</ele>
        <time>2021-08-19T14:35:46Z</time>
      </trkpt>
      <trkpt lat="48.01745" lon="6.91013">
        <ele>872</ele>
        <time>2021-08-19T14:35:53Z</time>
      </trkpt>
      <trkpt lat="48.01841" lon="6.90947">
        <ele>862</ele>
        <time>2021-08-19T14:36:17Z</time>
      </trkpt>
      <trkpt lat="48.01897" lon="6.90902">
        <ele>852</ele>
        <time>2021-08-19T14:36:32Z</time>
      </trkpt>
      <trkpt lat="48.01958" lon="6.90902">
        <ele>842</ele>
        <time>2021-08-19T14:36:46Z</time>
      </trkpt>
      <trkpt lat="48.02" lon="6.90945">
        <ele>841</ele>
        <time>2021-08-19T14:36:58Z</time>
      </trkpt>
      <trkpt lat="48.02033" lon="6.91012">
        <ele>843</ele>
        <time>2021-08-19T14:37:11Z</time>
      </trkpt>
      <trkpt lat="48.02047" lon="6.91028">
        <ele>841</ele>
        <time>2021-08-19T14:37:15Z</time>
      </trkpt>
      <trkpt lat="48.02066" lon="6.91043">
        <ele>836</ele>
        <time>2021-08-19T14:37:20Z</time>
      </trkpt>
      <trkpt lat="48.02082" lon="6.91046">
        <ele>830</ele>
        <time>2021-08-19T14:37:24Z</time>
      </trkpt>
      <trkpt lat="48.02098" lon="6.91076">
        <ele>831</ele>
        <time>2021-08-19T14:37:30Z</time>
      </trkpt>
      <trkpt lat="48.02178" lon="6.91169">
        <ele>822</ele>
        <time>2021-08-19T14:37:54Z</time>
      </trkpt>
      <trkpt lat="48.02261" lon="6.91241">
        <ele>812</ele>
        <time>2021-08-19T14:38:16Z</time>
      </trkpt>
      <trkpt lat="48.02305" lon="6.91288">
        <ele>808</ele>
        <time>2021-08-19T14:38:29Z</time>
      </trkpt>
      <trkpt lat="48.02387" lon="6.91389">
        <ele>801</ele>
        <time>2021-08-19T14:38:54Z</time>
      </trkpt>
      <trkpt lat="48.02385" lon="6.91372">
        <ele>799</ele>
        <time>2021-08-19T14:38:56Z</time>
      </trkpt>
      <trkpt lat="48.02299" lon="6.9116">
        <ele>792</ele>
        <time>2021-08-19T14:39:35Z</time>
      </trkpt>
      <trkpt lat="48.02289" lon="6.91092">
        <ele>786</ele>
        <time>2021-08-19T14:39:46Z</time>
      </trkpt>
      <trkpt lat="48.02317" lon="6.90998">
        <ele>773</ele>
        <time>2021-08-19T14:40:02Z</time>
      </trkpt>
      <trkpt lat="48.02331" lon="6.90974">
        <ele>769</ele>
        <time>2021-08-19T14:40:07Z</time>
      </trkpt>
      <trkpt lat="48.02328" lon="6.90954">
        <ele>766</ele>
        <time>2021-08-19T14:40:10Z</time>
      </trkpt>
      <trkpt lat="48.02345" lon="6.90913">
        <ele>761</ele>
        <time>2021-08-19T14:40:18Z</time>
      </trkpt>
      <trkpt lat="48.02368" lon="6.90878">
        <ele>760</ele>
        <time>2021-08-19T14:40:25Z</time>
      </trkpt>
      <trkpt lat="48.02393" lon="6.9086">
        <ele>762</ele>
        <time>2021-08-19T14:40:32Z</time>
      </trkpt>
      <trkpt lat="48.0237" lon="6.90808">
        <ele>761</ele>
        <time>2021-08-19T14:40:42Z</time>
      </trkpt>
      <trkpt lat="48.02283" lon="6.90679">
        <ele>750</ele>
        <time>2021-08-19T14:41:10Z</time>
      </trkpt>
      <trkpt lat="48.02294" lon="6.90659">
        <ele>752</ele>
        <time>2021-08-19T14:41:14Z</time>
      </trkpt>
      <trkpt lat="48.02294" lon="6.90505">
        <ele>762</ele>
        <time>2021-08-19T14:41:38Z</time>
      </trkpt>
      <trkpt lat="48.02254" lon="6.9031">
        <ele>765</ele>
        <time>2021-08-19T14:42:10Z</time>
      </trkpt>
      <trkpt lat="48.02236" lon="6.90237">
        <ele>769</ele>
        <time>2021-08-19T14:42:22Z</time>
      </trkpt>
      <trkpt lat="48.02262" lon="6.90234">
        <ele>778</ele>
        <time>2021-08-19T14:42:28Z</time>
      </trkpt>
      <trkpt lat="48.02249" lon="6.90209">
        <ele>776</ele>
        <time>2021-08-19T14:42:33Z</time>
      </trkpt>
      <trkpt lat="48.02239" lon="6.90163">
        <ele>779</ele>
        <time>2021-08-19T14:42:41Z</time>
      </trkpt>
      <trkpt lat="48.0224" lon="6.90129">
        <ele>785</ele>
        <time>2021-08-19T14:42:46Z</time>
      </trkpt>
      <trkpt lat="48.02249" lon="6.90118">
        <ele>789</ele>
        <time>2021-08-19T14:42:49Z</time>
      </trkpt>
      <trkpt lat="48.02266" lon="6.90149">
        <ele>791</ele>
        <time>2021-08-19T14:42:55Z</time>
      </trkpt>
      <trkpt lat="48.02283" lon="6.90138">
        <ele>799</ele>
        <time>2021-08-19T14:43:00Z</time>
      </trkpt>
      <trkpt lat="48.02292" lon="6.90113">
        <ele>806</ele>
        <time>2021-08-19T14:43:04Z</time>
      </trkpt>
      <trkpt lat="48.0228" lon="6.90048">
        <ele>811</ele>
        <time>2021-08-19T14:43:15Z</time>
      </trkpt>
      <trkpt lat="48.02262" lon="6.90009">
        <ele>813</ele>
        <time>2021-08-19T14:43:22Z</time>
      </trkpt>
      <trkpt lat="48.02203" lon="6.89947">
        <ele>809</ele>
        <time>2021-08-19T14:43:39Z</time>
      </trkpt>
      <trkpt lat="48.02199" lon="6.89924">
        <ele>812</ele>
        <time>2021-08-19T14:43:43Z</time>
      </trkpt>
      <trkpt lat="48.02218" lon="6.89892">
        <ele>819</ele>
        <time>2021-08-19T14:43:49Z</time>
      </trkpt>
      <trkpt lat="48.02212" lon="6.89854">
        <ele>820</ele>
        <time>2021-08-19T14:43:55Z</time>
      </trkpt>
      <trkpt lat="48.02199" lon="6.89832">
        <ele>819</ele>
        <time>2021-08-19T14:44:00Z</time>
      </trkpt>
      <trkpt lat="48.02198" lon="6.89794">
        <ele>822</ele>
        <time>2021-08-19T14:44:06Z</time>
      </trkpt>
      <trkpt lat="48.02183" lon="6.89729">
        <ele>826</ele>
        <time>2021-08-19T14:44:17Z</time>
      </trkpt>
      <trkpt lat="48.0218" lon="6.89641">
        <ele>833</ele>
        <time>2021-08-19T14:44:30Z</time>
      </trkpt>
      <trkpt lat="48.02184" lon="6.89606">
        <ele>836</ele>
        <time>2021-08-19T14:44:36Z</time>
      </trkpt>
      <trkpt lat="48.02217" lon="6.89537">
        <ele>840</ele>
        <time>2021-08-19T14:44:49Z</time>
      </trkpt>
      <trkpt lat="48.02278" lon="6.89637">
        <ele>846</ele>
        <time>2021-08-19T14:45:10Z</time>
      </trkpt>
      <trkpt lat="48.02308" lon="6.89658">
        <ele>850</ele>
        <time>2021-08-19T14:45:18Z</time>
      </trkpt>
      <trkpt lat="48.02347" lon="6.89654">
        <ele>857</ele>
        <time>2021-08-19T14:45:27Z</time>
      </trkpt>
      <trkpt lat="48.0238" lon="6.89668">
        <ele>861</ele>
        <time>2021-08-19T14:45:35Z</time>
      </trkpt>
      <trkpt lat="48.02425" lon="6.89945">
        <ele>867</ele>
        <time>2021-08-19T14:46:20Z</time>
      </trkpt>
      <trkpt lat="48.0246" lon="6.90125">
        <ele>871</ele>
        <time>2021-08-19T14:46:49Z</time>
      </trkpt>
      <trkpt lat="48.0247" lon="6.90147">
        <ele>874</ele>
        <time>2021-08-19T14:46:53Z</time>
      </trkpt>
      <trkpt lat="48.02475" lon="6.90214">
        <ele>872</ele>
        <time>2021-08-19T14:47:04Z</time>
      </trkpt>
      <trkpt lat="48.02532" lon="6.90357">
        <ele>882</ele>
        <time>2021-08-19T14:47:30Z</time>
      </trkpt>
      <trkpt lat="48.0256" lon="6.90443">
        <ele>879</ele>
        <time>2021-08-19T14:47:45Z</time>
      </trkpt>
      <trkpt lat="48.02601" lon="6.90517">
        <ele>881</ele>
        <time>2021-08-19T14:48:00Z</time>
      </trkpt>
      <trkpt lat="48.02667" lon="6.90604">
        <ele>885</ele>
        <time>2021-08-19T14:48:20Z</time>
      </trkpt>
      <trkpt lat="48.02705" lon="6.90662">
        <ele>887</ele>
        <time>2021-08-19T14:48:33Z</time>
      </trkpt>
      <trkpt lat="48.02711" lon="6.90709">
        <ele>885</ele>
        <time>2021-08-19T14:48:40Z</time>
      </trkpt>
      <trkpt lat="48.0275" lon="6.90807">
        <ele>894</ele>
        <time>2021-08-19T14:48:58Z</time>
      </trkpt>
      <trkpt lat="48.02764" lon="6.909">
        <ele>898</ele>
        <time>2021-08-19T14:49:13Z</time>
      </trkpt>
      <trkpt lat="48.02804" lon="6.91015">
        <ele>907</ele>
        <time>2021-08-19T14:49:33Z</time>
      </trkpt>
      <trkpt lat="48.0282" lon="6.91039">
        <ele>911</ele>
        <time>2021-08-19T14:49:38Z</time>
      </trkpt>
      <trkpt lat="48.02919" lon="6.91209">
        <ele>928</ele>
        <time>2021-08-19T14:50:14Z</time>
      </trkpt>
      <trkpt lat="48.0293" lon="6.912">
        <ele>932</ele>
        <time>2021-08-19T14:50:17Z</time>
      </trkpt>
    </trkseg>
  </trk>
</gpx>